Time;durP1;ratioP1;P1;durP2;ratioP2;P2;SDS_P1;SDS_P2;PMS_P1;PMS_P2;Temp;Humidity;BMP_temperature;BMP_pressure;BME280_temperature;BME280_humidity;BME280_pressure;Samples;Min_cycle;Max_cycle;Signal;HPM_P1;HPM_P2
2021/01/02 00:00:20;;;;;;;8.47;6.10;;;;;;;5.62;100.00;101588.72;1852036;77;26228;-77
2021/01/02 00:03:07;;;;;;;8.30;6.20;;;;;;;5.61;100.00;101597.52;1852161;77;26235;-77
2021/01/02 00:05:42;;;;;;;9.37;6.67;;;;;;;5.53;100.00;101595.63;1796651;80;26267;-77
2021/01/02 00:08:18;;;;;;;8.30;6.53;;;;;;;5.52;100.00;101596.17;1851932;77;26723;-77
2021/01/02 00:10:54;;;;;;;7.77;6.77;;;;;;;5.57;100.00;101600.45;1852036;77;26687;-77
2021/01/02 00:13:54;;;;;;;9.83;6.70;;;;;;;5.38;100.00;101593.31;1852519;76;26289;-77
2021/01/02 00:16:48;;;;;;;6.93;6.10;;;;;;;5.50;100.00;101595.05;1850542;76;26215;-77
2021/01/02 00:19:25;;;;;;;7.33;6.17;;;;;;;5.42;100.00;101595.91;1852745;76;26639;-76
2021/01/02 00:21:58;;;;;;;8.77;7.00;;;;;;;5.41;100.00;101599.20;1852554;76;26201;-76
2021/01/02 00:24:39;;;;;;;9.57;6.27;;;;;;;5.49;100.00;101598.86;1852037;76;26247;-76
2021/01/02 00:27:12;;;;;;;8.20;6.83;;;;;;;5.44;100.00;101593.20;1852054;77;26223;-76
2021/01/02 00:30:17;;;;;;;8.50;6.87;;;;;;;5.47;100.00;101595.52;1797380;79;26249;-77
2021/01/02 00:32:53;;;;;;;6.97;5.97;;;;;;;5.46;100.00;101599.34;1849432;77;26217;-77
2021/01/02 00:35:26;;;;;;;9.53;7.10;;;;;;;5.45;100.00;101599.56;1852073;77;26309;-76
2021/01/02 00:38:05;;;;;;;8.63;6.93;;;;;;;5.47;100.00;101598.81;1852102;77;26224;-77
2021/01/02 00:40:36;;;;;;;9.30;7.33;;;;;;;5.48;100.00;101595.80;1852100;77;26364;-78
2021/01/02 00:43:07;;;;;;;9.97;7.23;;;;;;;5.49;100.00;101606.28;1852012;77;26224;-76
2021/01/02 00:45:37;;;;;;;10.00;6.93;;;;;;;5.45;100.00;101605.07;1852168;77;26341;-75
2021/01/02 00:48:08;;;;;;;8.47;7.57;;;;;;;5.41;100.00;101599.20;1852063;77;26314;-77
2021/01/02 00:50:40;;;;;;;8.97;6.80;;;;;;;5.47;100.00;101601.56;1852153;77;26294;-76
2021/01/02 00:53:35;;;;;;;8.80;6.60;;;;;;;5.51;100.00;101601.40;1796709;80;26245;-77
2021/01/02 00:56:16;;;;;;;8.77;6.73;;;;;;;5.45;100.00;101606.45;1852102;77;26882;-76
2021/01/02 00:59:36;;;;;;;9.13;7.60;;;;;;;5.44;100.00;101602.85;1852480;76;26663;-77
2021/01/02 01:02:28;;;;;;;9.87;7.47;;;;;;;5.43;100.00;101597.59;1796714;80;26286;-76
2021/01/02 01:05:07;;;;;;;9.73;7.20;;;;;;;5.43;100.00;101605.86;1852118;77;26232;-76
2021/01/02 01:07:38;;;;;;;10.70;7.20;;;;;;;5.44;100.00;101608.36;1852111;77;26216;-77
2021/01/02 01:10:11;;;;;;;11.10;7.77;;;;;;;5.44;100.00;101610.27;1852235;77;26247;-77
2021/01/02 01:12:44;;;;;;;11.37;8.27;;;;;;;5.43;100.00;101610.80;1852130;77;26233;-77
2021/01/02 01:15:15;;;;;;;10.37;7.90;;;;;;;5.40;100.00;101608.52;1796772;80;26361;-78
2021/01/02 01:17:49;;;;;;;9.33;7.53;;;;;;;5.39;100.00;101608.78;1852074;77;26228;-77
2021/01/02 01:20:21;;;;;;;11.37;8.17;;;;;;;5.36;100.00;101610.06;1852002;77;26808;-77
2021/01/02 01:23:04;;;;;;;11.33;7.60;;;;;;;5.39;100.00;101606.83;1852018;77;26252;-77
2021/01/02 01:25:41;;;;;;;11.27;8.17;;;;;;;5.40;100.00;101611.28;1852534;76;26302;-77
2021/01/02 01:28:15;;;;;;;9.77;7.97;;;;;;;5.34;100.00;101608.62;1852329;76;26313;-77
2021/01/02 01:30:47;;;;;;;11.13;8.27;;;;;;;5.30;100.00;101616.52;1852102;77;26318;-76
2021/01/02 01:33:20;;;;;;;13.30;8.53;;;;;;;5.39;100.00;101616.48;1852070;77;26301;-77
2021/01/02 01:35:51;;;;;;;10.80;7.27;;;;;;;5.32;100.00;101616.27;1852071;77;26224;-78
2021/01/02 01:38:22;;;;;;;9.57;7.80;;;;;;;5.27;100.00;101615.58;1852120;77;26294;-77
2021/01/02 01:40:57;;;;;;;10.90;8.50;;;;;;;5.33;100.00;101623.47;1852207;77;26236;-77
2021/01/02 01:43:39;;;;;;;10.73;8.40;;;;;;;5.31;100.00;101623.69;1796763;80;26348;-77
2021/01/02 01:46:17;;;;;;;12.37;9.40;;;;;;;5.24;100.00;101618.81;1851580;77;26231;-77
2021/01/02 01:49:21;;;;;;;10.23;8.60;;;;;;;5.28;100.00;101618.65;1852105;77;26295;-77
2021/01/02 01:51:59;;;;;;;10.77;8.20;;;;;;;5.38;100.00;101623.62;1820370;77;26235;-77
2021/01/02 01:54:51;;;;;;;12.50;8.43;;;;;;;5.32;100.00;101630.89;1852086;77;26219;-78
2021/01/02 01:57:25;;;;;;;13.07;8.83;;;;;;;5.32;100.00;101623.16;1852086;77;26293;-77
2021/01/02 02:00:16;;;;;;;11.90;9.00;;;;;;;5.31;100.00;101626.97;1852110;77;26787;-77
2021/01/02 02:03:04;;;;;;;12.77;8.90;;;;;;;5.30;100.00;101633.05;1796739;80;26698;-78
2021/01/02 02:05:43;;;;;;;11.73;9.20;;;;;;;5.31;100.00;101633.33;1852038;77;26264;-77
2021/01/02 02:08:16;;;;;;;12.20;9.10;;;;;;;5.31;100.00;101633.86;1852462;76;26729;-77
2021/01/02 02:10:51;;;;;;;14.53;9.90;;;;;;;5.32;100.00;101639.15;1852087;77;26294;-78
2021/01/02 02:13:23;;;;;;;14.53;10.10;;;;;;;5.31;100.00;101631.95;1853448;76;26666;-78
2021/01/02 02:15:55;;;;;;;13.57;10.47;;;;;;;5.33;100.00;101635.33;1852527;76;26219;-78
2021/01/02 02:18:28;;;;;;;12.23;9.77;;;;;;;5.28;100.00;101635.71;1852052;77;26678;-77
2021/01/02 02:21:01;;;;;;;12.97;9.50;;;;;;;5.34;100.00;101631.52;1852033;77;26671;-78
2021/01/02 02:23:34;;;;;;;12.23;9.37;;;;;;;5.32;100.00;101628.13;1852057;77;26250;-78
2021/01/02 02:26:07;;;;;;;13.67;9.53;;;;;;;5.34;100.00;101629.29;1852126;77;26295;-77
2021/01/02 02:28:59;;;;;;;13.47;9.50;;;;;;;5.36;100.00;101631.26;1852070;77;26285;-76
2021/01/02 02:31:29;;;;;;;14.40;9.73;;;;;;;5.31;100.00;101632.48;1852274;76;26321;-76
2021/01/02 02:34:00;;;;;;;12.03;9.83;;;;;;;5.35;100.00;101629.56;1852131;77;26400;-76
2021/01/02 02:36:32;;;;;;;13.53;9.63;;;;;;;5.35;100.00;101629.56;1852015;77;26231;-75
2021/01/02 02:39:06;;;;;;;12.87;9.07;;;;;;;5.32;100.00;101629.52;1852016;77;26228;-77
2021/01/02 02:41:39;;;;;;;14.43;9.07;;;;;;;5.30;100.00;101630.83;1851988;77;26286;-77
2021/01/02 02:44:11;;;;;;;14.47;9.40;;;;;;;5.31;100.00;101631.95;1852067;76;26216;-76
2021/01/02 02:46:47;;;;;;;12.63;9.70;;;;;;;5.30;100.00;101630.30;1852105;77;26235;-76
2021/01/02 02:49:20;;;;;;;11.93;9.23;;;;;;;5.35;100.00;101630.95;1796593;80;26725;-77
2021/01/02 02:51:55;;;;;;;12.87;9.10;;;;;;;5.34;100.00;101630.67;1852017;77;26287;-75
2021/01/02 02:54:25;;;;;;;12.47;8.90;;;;;;;5.34;100.00;101632.89;1796563;80;26388;-78
2021/01/02 02:56:55;;;;;;;13.47;9.57;;;;;;;5.35;100.00;101634.55;1851939;77;26733;-77
2021/01/02 02:59:25;;;;;;;13.30;9.80;;;;;;;5.36;100.00;101634.02;1852066;77;26326;-77
2021/01/02 03:01:56;;;;;;;12.03;10.30;;;;;;;5.32;100.00;101644.66;1852033;77;26298;-78
2021/01/02 03:04:26;;;;;;;15.13;10.00;;;;;;;5.27;100.00;101640.37;1851914;77;26703;-78
2021/01/02 03:06:57;;;;;;;11.03;9.83;;;;;;;5.24;100.00;101646.35;1851988;77;26309;-77
2021/01/02 03:09:27;;;;;;;14.00;10.80;;;;;;;5.33;100.00;101643.59;1852004;77;26238;-77
2021/01/02 03:11:57;;;;;;;17.80;11.30;;;;;;;5.36;100.00;101651.39;1851931;77;26232;-78
2021/01/02 03:14:27;;;;;;;13.37;9.90;;;;;;;5.31;100.00;101650.39;1851940;77;26236;-78
2021/01/02 03:17:00;;;;;;;12.17;9.10;;;;;;;5.33;100.00;101644.97;1852024;77;26223;-78
2021/01/02 03:19:31;;;;;;;14.60;10.30;;;;;;;5.31;100.00;101643.50;1851996;77;26215;-77
2021/01/02 03:22:01;;;;;;;13.07;11.20;;;;;;;5.30;100.00;101639.09;1851967;77;26695;-78
2021/01/02 03:24:31;;;;;;;11.70;10.43;;;;;;;5.30;100.00;101637.18;1851960;77;26330;-77
2021/01/02 03:27:01;;;;;;;15.60;10.17;;;;;;;5.30;100.00;101635.80;1851917;77;26341;-77
2021/01/02 03:29:31;;;;;;;11.63;10.13;;;;;;;5.32;100.00;101641.91;1851909;77;26415;-77
2021/01/02 03:32:00;;;;;;;13.40;10.37;;;;;;;5.28;100.00;101634.33;1852051;77;26228;-78
2021/01/02 03:34:31;;;;;;;13.97;10.90;;;;;;;5.29;100.00;101641.00;1851980;77;26243;-77
2021/01/02 03:37:01;;;;;;;12.67;10.20;;;;;;;5.28;100.00;101640.69;1851943;77;26285;-76
2021/01/02 03:39:31;;;;;;;13.37;9.57;;;;;;;5.27;100.00;101637.62;1851986;77;26683;-76
2021/01/02 03:42:00;;;;;;;10.73;9.37;;;;;;;5.26;100.00;101636.49;1852064;77;26298;-77
2021/01/02 03:44:30;;;;;;;14.67;10.17;;;;;;;5.19;100.00;101632.96;1852014;77;26212;-78
2021/01/02 03:47:02;;;;;;;10.63;9.00;;;;;;;5.14;100.00;101631.42;1852036;77;26224;-76
2021/01/02 03:49:31;;;;;;;11.60;8.20;;;;;;;5.20;100.00;101641.53;1852065;76;26691;-76
2021/01/02 03:52:03;;;;;;;11.50;8.30;;;;;;;5.29;100.00;101638.25;1851943;77;26325;-78
2021/01/02 03:54:33;;;;;;;10.90;8.50;;;;;;;5.24;100.00;101643.60;1851945;77;26293;-77
2021/01/02 03:57:03;;;;;;;10.13;7.73;;;;;;;5.29;100.00;101647.89;1851959;77;26216;-77
2021/01/02 03:59:33;;;;;;;8.80;7.27;;;;;;;5.24;100.00;101647.73;1851926;77;26227;-77
2021/01/02 04:02:03;;;;;;;9.67;7.10;;;;;;;5.30;100.00;101639.94;1851973;77;26282;-77
2021/01/02 04:04:33;;;;;;;8.07;6.23;;;;;;;5.31;100.00;101642.12;1852000;77;26310;-77
2021/01/02 04:07:04;;;;;;;9.17;7.20;;;;;;;5.22;100.00;101644.35;1852018;77;26216;-77
2021/01/02 04:09:33;;;;;;;8.40;7.23;;;;;;;5.28;100.00;101650.86;1852013;77;26298;-76
2021/01/02 04:12:05;;;;;;;9.17;6.87;;;;;;;5.26;100.00;101649.70;1796641;80;26713;-77
2021/01/02 04:14:36;;;;;;;7.23;6.50;;;;;;;5.25;100.00;101642.53;1852004;77;26664;-77
2021/01/02 04:17:06;;;;;;;9.33;7.00;;;;;;;5.26;100.00;101642.00;1852055;77;26223;-78
2021/01/02 04:19:36;;;;;;;10.10;6.67;;;;;;;5.09;100.00;101642.31;1852103;77;26659;-76
2021/01/02 04:22:06;;;;;;;7.03;6.33;;;;;;;5.16;100.00;101644.45;1851977;77;26266;-77
2021/01/02 04:24:36;;;;;;;11.80;7.03;;;;;;;5.19;100.00;101651.70;1852004;77;26259;-76
2021/01/02 04:27:07;;;;;;;9.77;6.17;;;;;;;5.21;100.00;101653.71;1852025;77;26267;-77
2021/01/02 04:29:37;;;;;;;9.30;7.00;;;;;;;5.19;100.00;101651.70;1852153;77;26283;-76
2021/01/02 04:32:08;;;;;;;8.67;6.90;;;;;;;5.29;100.00;101663.56;1852124;77;26309;-76
2021/01/02 04:34:38;;;;;;;10.47;7.17;;;;;;;5.32;100.00;101665.32;1852083;77;26655;-76
2021/01/02 04:37:07;;;;;;;8.40;7.47;;;;;;;5.26;100.00;101664.84;1852041;77;26217;-77
2021/01/02 04:39:37;;;;;;;8.47;5.83;;;;;;;5.29;100.00;101668.55;1852110;77;26223;-76
2021/01/02 04:42:08;;;;;;;9.63;6.33;;;;;;;5.26;100.00;101655.21;1852106;77;26219;-75
2021/01/02 04:44:39;;;;;;;10.37;6.90;;;;;;;5.26;100.00;101655.77;1852055;77;26289;-76
2021/01/02 04:47:10;;;;;;;7.43;5.77;;;;;;;5.23;100.00;101663.94;1852099;77;26294;-76
2021/01/02 04:49:40;;;;;;;10.23;7.23;;;;;;;5.27;100.00;101662.41;1852094;77;26231;-75
2021/01/02 04:52:12;;;;;;;8.67;5.80;;;;;;;5.27;100.00;101661.56;1852029;77;26883;-76
2021/01/02 04:54:44;;;;;;;9.17;6.30;;;;;;;5.20;100.00;101652.55;1851986;77;26675;-77
2021/01/02 04:57:14;;;;;;;7.77;6.07;;;;;;;5.25;100.00;101653.55;1851992;77;26235;-77
2021/01/02 04:59:49;;;;;;;12.03;5.83;;;;;;;5.23;100.00;101652.92;1840203;76;931483;-78
2021/01/02 05:02:21;;;;;;;10.83;6.43;;;;;;;5.28;100.00;101662.72;1796611;80;26776;-78
2021/01/02 05:04:52;;;;;;;8.13;5.80;;;;;;;5.25;100.00;101659.59;1852042;77;26730;-76
2021/01/02 05:07:26;;;;;;;7.97;6.00;;;;;;;5.18;100.00;101662.41;1852034;77;26220;-76
2021/01/02 05:09:56;;;;;;;9.17;5.60;;;;;;;5.24;100.00;101662.03;1852124;77;26651;-76
2021/01/02 05:12:28;;;;;;;7.80;5.30;;;;;;;5.22;100.00;101663.63;1852079;77;26299;-78
2021/01/02 05:15:04;;;;;;;9.57;5.73;;;;;;;5.29;100.00;101654.77;1852099;77;26750;-77
2021/01/02 05:17:33;;;;;;;9.67;6.77;;;;;;;5.21;100.00;101666.64;1852038;77;26667;-77
2021/01/02 05:20:07;;;;;;;8.87;5.70;;;;;;;5.22;100.00;101663.63;1852089;77;26223;-77
2021/01/02 05:22:37;;;;;;;7.03;5.77;;;;;;;5.24;100.00;101668.92;1852022;77;26687;-77
2021/01/02 05:25:16;;;;;;;6.43;5.63;;;;;;;5.25;100.00;101665.10;1852097;77;26224;-77
2021/01/02 05:27:48;;;;;;;11.10;5.60;;;;;;;5.33;100.00;101668.92;1852033;77;26378;-77
2021/01/02 05:30:20;;;;;;;8.73;5.47;;;;;;;5.21;100.00;101675.74;1852037;77;26286;-77
2021/01/02 05:33:11;;;;;;;10.53;5.70;;;;;;;5.25;100.00;101674.74;1851980;77;26299;-77
2021/01/02 05:35:43;;;;;;;10.27;4.97;;;;;;;5.28;100.00;101676.50;1851973;77;26294;-77
2021/01/02 05:38:22;;;;;;;8.53;5.23;;;;;;;5.25;100.00;101676.12;1852072;77;26290;-77
2021/01/02 05:40:54;;;;;;;9.67;4.80;;;;;;;5.27;100.00;101678.09;1852071;77;26208;-77
2021/01/02 05:43:25;;;;;;;8.00;5.17;;;;;;;5.26;100.00;101680.56;1852008;77;26297;-77
2021/01/02 05:45:56;;;;;;;6.77;4.40;;;;;;;5.29;100.00;101679.56;1852072;77;26652;-77
2021/01/02 05:48:28;;;;;;;6.90;4.27;;;;;;;5.26;100.00;101685.52;1852132;77;26723;-76
2021/01/02 05:50:59;;;;;;;7.93;4.90;;;;;;;5.24;100.00;101682.16;1852125;77;26294;-77
2021/01/02 05:53:31;;;;;;;5.70;4.60;;;;;;;5.19;100.00;101676.49;1852158;77;26731;-78
2021/01/02 05:56:11;;;;;;;5.67;4.60;;;;;;;5.21;100.00;101680.41;1852219;77;26687;-78
2021/01/02 05:58:42;;;;;;;11.93;6.37;;;;;;;5.23;100.00;101683.22;1852147;77;26297;-76
2021/01/02 06:01:17;;;;;;;7.70;6.93;;;;;;;5.26;100.00;101680.00;1852033;77;26219;-77
2021/01/02 06:03:49;;;;;;;9.47;6.97;;;;;;;5.19;100.00;101684.76;1852036;77;26224;-78
2021/01/02 06:06:20;;;;;;;9.33;7.37;;;;;;;5.19;100.00;101686.66;1852053;77;26286;-77
2021/01/02 06:08:51;;;;;;;8.53;7.40;;;;;;;5.18;100.00;101691.33;1852134;77;26286;-78
2021/01/02 06:11:24;;;;;;;8.93;7.70;;;;;;;5.12;100.00;101692.27;1852029;77;26290;-77
2021/01/02 06:13:55;;;;;;;11.33;8.77;;;;;;;5.06;100.00;101695.91;1851949;77;26275;-78
2021/01/02 06:16:28;;;;;;;9.67;7.23;;;;;;;5.00;100.00;101696.31;1852100;77;26217;-75
2021/01/02 06:18:58;;;;;;;8.73;7.37;;;;;;;5.01;100.00;101694.37;1851996;77;26717;-78
2021/01/02 06:21:29;;;;;;;12.33;7.03;;;;;;;5.03;100.00;101700.52;1852069;77;26330;-75
2021/01/02 06:24:00;;;;;;;11.10;8.23;;;;;;;5.09;100.00;101705.12;1851982;77;26808;-75
2021/01/02 06:26:30;;;;;;;12.20;7.80;;;;;;;5.01;100.00;101711.74;1852018;77;26236;-76
2021/01/02 06:29:00;;;;;;;8.90;7.27;;;;;;;5.01;100.00;101714.50;1851956;77;26762;-76
2021/01/02 06:31:33;;;;;;;8.27;7.30;;;;;;;5.02;100.00;101718.09;1852008;77;26219;-77
2021/01/02 06:34:06;;;;;;;9.10;7.30;;;;;;;4.98;100.00;101713.58;1851959;77;26717;-78
2021/01/02 06:36:39;;;;;;;9.63;7.10;;;;;;;4.94;100.00;101721.14;1796667;80;26686;-76
2021/01/02 06:39:19;;;;;;;8.87;7.97;;;;;;;4.98;100.00;101717.72;1852063;77;26278;-75
2021/01/02 06:41:50;;;;;;;10.00;8.27;;;;;;;4.90;100.00;101721.30;1851989;77;26227;-77
2021/01/02 06:44:45;;;;;;;10.17;7.47;;;;;;;4.97;100.00;101724.81;1851970;77;26353;-76
2021/01/02 06:47:20;;;;;;;9.43;7.40;;;;;;;4.89;100.00;101725.11;1850264;77;26282;-77
2021/01/02 06:49:51;;;;;;;8.73;7.87;;;;;;;4.88;100.00;101732.52;1852010;77;26674;-78
2021/01/02 06:52:34;;;;;;;13.43;7.60;;;;;;;4.94;100.00;101734.91;1851945;77;26223;-78
2021/01/02 06:55:26;;;;;;;15.00;7.40;;;;;;;4.88;100.00;101740.78;1852094;77;26277;-78
2021/01/02 06:58:09;;;;;;;8.40;6.97;;;;;;;4.89;100.00;101737.49;1851998;77;26217;-79
2021/01/02 07:00:41;;;;;;;8.47;7.00;;;;;;;4.86;100.00;101737.42;1852105;76;26220;-77
2021/01/02 07:03:33;;;;;;;8.37;6.57;;;;;;;4.86;100.00;101742.93;1852187;77;26341;-77
2021/01/02 07:06:14;;;;;;;8.03;7.03;;;;;;;4.83;100.00;101735.13;1853092;76;26631;-78
2021/01/02 07:08:47;;;;;;;7.53;6.73;;;;;;;4.86;100.00;101733.83;1851943;76;26212;-77
2021/01/02 07:11:34;;;;;;;7.27;6.43;;;;;;;4.88;100.00;101733.89;1852086;77;26223;-78
2021/01/02 07:14:22;;;;;;;7.07;6.17;;;;;;;4.87;100.00;101732.77;1851900;77;26784;-77
2021/01/02 07:16:56;;;;;;;8.77;6.63;;;;;;;4.83;100.00;101733.75;1852033;77;26659;-78
2021/01/02 07:19:32;;;;;;;8.27;6.63;;;;;;;4.84;100.00;101737.32;1852121;77;26224;-77
2021/01/02 07:22:03;;;;;;;8.37;6.23;;;;;;;4.84;100.00;101741.45;1852144;77;26295;-78
2021/01/02 07:24:35;;;;;;;7.23;5.77;;;;;;;4.85;100.00;101739.02;1852047;77;26314;-78
2021/01/02 07:27:07;;;;;;;7.77;5.33;;;;;;;4.86;100.00;101744.84;1852228;76;26282;-77
2021/01/02 07:29:39;;;;;;;7.70;5.87;;;;;;;4.84;100.00;101742.83;1852077;77;26260;-77
2021/01/02 07:32:11;;;;;;;8.10;5.73;;;;;;;4.89;100.00;101747.12;1852109;77;26228;-76
2021/01/02 07:34:42;;;;;;;5.60;5.00;;;;;;;4.87;100.00;101742.40;1852049;77;26317;-78
2021/01/02 07:37:14;;;;;;;6.73;4.93;;;;;;;4.82;100.00;101744.98;1852071;77;26223;-78
2021/01/02 07:39:54;;;;;;;7.53;4.83;;;;;;;4.82;100.00;101744.98;1852095;77;26301;-77
2021/01/02 07:42:27;;;;;;;7.67;5.23;;;;;;;4.85;100.00;101749.50;1796650;80;26665;-77
2021/01/02 07:45:02;;;;;;;6.47;4.60;;;;;;;4.76;100.00;101742.59;1852016;77;26305;-77
2021/01/02 07:47:32;;;;;;;8.10;5.20;;;;;;;4.79;100.00;101749.57;1852076;77;26293;-78
2021/01/02 07:50:04;;;;;;;8.00;5.07;;;;;;;4.69;100.00;101748.69;1852088;77;26276;-79
2021/01/02 07:52:34;;;;;;;7.27;5.30;;;;;;;4.76;100.00;101746.72;1852031;77;26228;-77
2021/01/02 07:55:15;;;;;;;7.70;5.00;;;;;;;4.66;100.00;101746.39;1852060;77;26225;-77
2021/01/02 07:57:46;;;;;;;5.87;3.53;;;;;;;4.76;100.00;101750.84;1852033;77;26223;-79
2021/01/02 08:00:18;;;;;;;4.20;3.43;;;;;;;4.79;100.00;101746.81;1852042;77;26713;-78
2021/01/02 08:02:48;;;;;;;5.50;3.37;;;;;;;4.75;100.00;101751.91;1852015;77;26236;-76
2021/01/02 08:05:21;;;;;;;3.90;3.10;;;;;;;4.70;100.00;101755.89;1851986;77;26329;-77
2021/01/02 08:07:55;;;;;;;5.43;3.47;;;;;;;4.71;100.00;101751.20;1852011;77;26224;-78
2021/01/02 08:10:26;;;;;;;4.87;2.87;;;;;;;4.72;100.00;101748.77;1852108;77;26243;-76
2021/01/02 08:13:00;;;;;;;4.30;3.10;;;;;;;4.74;100.00;101741.98;1852054;77;26228;-77
2021/01/02 08:15:31;;;;;;;3.50;2.70;;;;;;;4.63;100.00;101755.08;1852108;77;26220;-77
2021/01/02 08:18:03;;;;;;;4.63;2.67;;;;;;;4.68;100.00;101753.88;1852091;77;26232;-77
2021/01/02 08:20:34;;;;;;;5.17;2.77;;;;;;;4.57;100.00;101758.75;1852029;77;26294;-76
2021/01/02 08:23:09;;;;;;;3.23;2.93;;;;;;;4.64;100.00;101752.64;1851977;77;26259;-78
2021/01/02 08:25:39;;;;;;;6.83;3.10;;;;;;;4.56;100.00;101757.05;1851904;77;26286;-77
2021/01/02 08:28:10;;;;;;;3.63;2.70;;;;;;;4.45;100.00;101756.41;1852093;77;26322;-77
2021/01/02 08:30:41;;;;;;;4.97;2.60;;;;;;;4.54;100.00;101757.80;1851985;77;26259;-77
2021/01/02 08:33:15;;;;;;;5.47;2.80;;;;;;;4.70;100.00;101752.29;1851978;77;26292;-77
2021/01/02 08:35:45;;;;;;;5.40;2.93;;;;;;;4.68;100.00;101758.01;1851958;77;26317;-78
2021/01/02 08:38:16;;;;;;;5.03;3.00;;;;;;;4.68;100.00;101755.78;1852090;77;26228;-77
2021/01/02 08:40:49;;;;;;;2.87;2.40;;;;;;;4.71;100.00;101763.58;1851988;77;26232;-78
2021/01/02 08:43:26;;;;;;;3.80;2.67;;;;;;;4.70;100.00;101766.89;1851952;77;26232;-77
2021/01/02 08:46:02;;;;;;;4.07;2.70;;;;;;;4.71;100.00;101766.33;1852081;77;26383;-78
2021/01/02 08:48:32;;;;;;;6.07;4.03;;;;;;;4.68;100.00;101763.51;1852184;77;26255;-77
2021/01/02 08:51:03;;;;;;;6.30;4.83;;;;;;;4.79;100.00;101766.08;1852017;77;26777;-77
2021/01/02 08:53:33;;;;;;;6.03;4.60;;;;;;;4.74;100.00;101772.26;1851996;77;26302;-77
2021/01/02 08:56:25;;;;;;;6.57;4.10;;;;;;;4.75;100.00;101764.84;1796635;80;26365;-77
2021/01/02 08:58:57;;;;;;;5.23;3.57;;;;;;;4.59;100.00;101763.47;1852128;77;26664;-78
2021/01/02 09:01:28;;;;;;;3.47;2.70;;;;;;;4.65;100.00;101768.63;1852192;77;26306;-78
2021/01/02 09:04:11;;;;;;;7.33;4.40;;;;;;;4.56;100.00;101765.30;1822301;77;26204;-77
2021/01/02 09:06:41;;;;;;;5.97;4.20;;;;;;;4.54;100.00;101775.67;1852124;77;26236;-77
2021/01/02 09:09:11;;;;;;;6.70;3.87;;;;;;;4.52;100.00;101775.07;1852178;77;26286;-78
2021/01/02 09:11:51;;;;;;;6.20;4.30;;;;;;;4.56;100.00;101775.78;1852111;77;26227;-77
2021/01/02 09:14:21;;;;;;;7.83;4.43;;;;;;;4.63;100.00;101778.47;1852110;77;26225;-78
2021/01/02 09:17:01;;;;;;;5.83;4.40;;;;;;;4.68;100.00;101775.05;1852149;77;26682;-78
2021/01/02 09:19:32;;;;;;;5.67;4.33;;;;;;;4.58;100.00;101778.29;1852071;77;26235;-77
2021/01/02 09:22:03;;;;;;;7.20;4.87;;;;;;;4.57;100.00;101778.84;1852109;77;26307;-78
2021/01/02 09:24:33;;;;;;;6.03;4.60;;;;;;;4.64;100.00;101780.16;1852048;77;26823;-78
2021/01/02 09:27:03;;;;;;;6.83;4.80;;;;;;;4.73;100.00;101778.82;1852074;77;26702;-78
2021/01/02 09:29:35;;;;;;;8.30;4.63;;;;;;;4.73;100.00;101780.73;1852082;77;26236;-77
2021/01/02 09:32:06;;;;;;;6.13;4.27;;;;;;;4.66;100.00;101777.20;1852148;76;26263;-76
2021/01/02 09:34:36;;;;;;;7.13;3.97;;;;;;;4.72;100.00;101788.66;1852024;76;26230;-76
2021/01/02 09:37:06;;;;;;;5.40;4.20;;;;;;;4.55;100.00;101787.00;1851972;77;26676;-77
2021/01/02 09:39:36;;;;;;;7.70;4.20;;;;;;;4.76;100.00;101782.49;1852047;77;26733;-77
2021/01/02 09:42:06;;;;;;;5.73;4.17;;;;;;;4.71;100.00;101780.94;1852011;77;26321;-79
2021/01/02 09:44:38;;;;;;;5.77;3.87;;;;;;;4.69;100.00;101786.37;1852105;77;26303;-77
2021/01/02 09:47:07;;;;;;;5.00;4.07;;;;;;;4.70;100.00;101775.16;1852112;77;26239;-79
2021/01/02 09:49:37;;;;;;;5.00;4.30;;;;;;;4.70;100.00;101782.56;1852121;77;26231;-77
2021/01/02 09:52:07;;;;;;;5.10;3.80;;;;;;;4.77;100.00;101780.59;1852138;77;26409;-77
2021/01/02 09:54:37;;;;;;;4.60;3.70;;;;;;;4.76;100.00;101788.53;1852113;77;26297;-77
2021/01/02 09:57:07;;;;;;;6.00;3.60;;;;;;;4.75;100.00;101789.05;1852214;77;26298;-79
2021/01/02 09:59:38;;;;;;;6.77;4.03;;;;;;;4.74;100.00;101779.67;1852191;77;26216;-79
2021/01/02 10:02:08;;;;;;;5.37;4.10;;;;;;;4.76;100.00;101775.61;1852176;77;26761;-79
2021/01/02 10:04:45;;;;;;;4.87;4.00;;;;;;;4.88;100.00;101783.97;1852071;77;26784;-79
2021/01/02 10:07:16;;;;;;;6.23;4.07;;;;;;;4.82;100.00;101791.24;1852107;77;26758;-81
2021/01/02 10:09:48;;;;;;;5.37;4.00;;;;;;;4.78;100.00;101780.91;1852233;77;26379;-79
2021/01/02 10:12:19;;;;;;;5.67;3.80;;;;;;;4.77;100.00;101786.09;1852122;77;26305;-79
2021/01/02 10:14:49;;;;;;;7.90;4.17;;;;;;;4.79;100.00;101793.05;1852113;77;26232;-80
2021/01/02 10:17:21;;;;;;;8.17;5.20;;;;;;;4.76;100.00;101796.25;1852121;77;26753;-81
2021/01/02 10:19:54;;;;;;;6.53;3.80;;;;;;;4.86;100.00;101795.77;1851789;77;26268;-78
2021/01/02 10:22:27;;;;;;;9.33;3.70;;;;;;;4.91;100.00;101798.69;1852104;77;26220;-81
2021/01/02 10:24:57;;;;;;;5.77;4.00;;;;;;;4.82;100.00;101795.91;1796691;80;26254;-79
2021/01/02 10:27:28;;;;;;;4.60;3.50;;;;;;;4.94;100.00;101796.85;1852076;77;26680;-79
2021/01/02 10:29:58;;;;;;;4.97;3.67;;;;;;;4.85;100.00;101789.94;1852068;77;26227;-78
2021/01/02 10:32:30;;;;;;;4.90;3.30;;;;;;;4.85;100.00;101796.82;1852012;77;26256;-79
2021/01/02 10:35:00;;;;;;;5.87;3.67;;;;;;;4.87;100.00;101793.33;1852153;77;26231;-78
2021/01/02 10:37:31;;;;;;;7.47;3.50;;;;;;;4.82;100.00;101792.63;1852053;77;26223;-81
2021/01/02 10:40:01;;;;;;;4.53;3.30;;;;;;;4.91;100.00;101801.44;1852047;77;26233;-81
2021/01/02 10:42:33;;;;;;;6.43;3.90;;;;;;;4.92;100.00;101798.44;1852050;77;26690;-79
2021/01/02 10:45:05;;;;;;;7.87;3.60;;;;;;;4.88;100.00;101790.33;1851994;77;26231;-77
2021/01/02 10:47:34;;;;;;;5.60;3.40;;;;;;;4.94;100.00;101796.32;1852017;77;26327;-78
2021/01/02 10:50:08;;;;;;;4.60;3.80;;;;;;;4.88;100.00;101790.33;1852147;77;26271;-78
2021/01/02 10:52:38;;;;;;;4.57;3.73;;;;;;;4.96;100.00;101798.30;1852364;77;26235;-76
2021/01/02 10:55:09;;;;;;;5.50;3.80;;;;;;;4.89;100.00;101789.27;1852308;77;26306;-77
2021/01/02 10:57:39;;;;;;;4.53;3.43;;;;;;;4.97;100.00;101783.47;1852309;77;26304;-76
2021/01/02 11:00:12;;;;;;;6.00;5.20;;;;;;;4.87;100.00;101783.16;1852292;77;26732;-76
2021/01/02 11:02:44;;;;;;;5.63;3.83;;;;;;;4.86;100.00;101774.58;1796628;80;26346;-77
2021/01/02 11:05:17;;;;;;;5.37;3.23;;;;;;;4.86;100.00;101773.73;1852212;77;26260;-78
2021/01/02 11:07:47;;;;;;;4.03;3.20;;;;;;;4.86;100.00;101766.86;1852119;77;26225;-76
2021/01/02 11:10:19;;;;;;;5.27;3.57;;;;;;;4.73;100.00;101759.56;1852178;77;26320;-76
2021/01/02 11:12:49;;;;;;;4.07;3.10;;;;;;;4.73;100.00;101755.43;1852189;77;26302;-77
2021/01/02 11:15:22;;;;;;;5.23;3.27;;;;;;;4.73;100.00;101753.20;1852119;77;26313;-78
2021/01/02 11:17:52;;;;;;;4.93;3.33;;;;;;;4.68;100.00;101751.13;1852061;77;26331;-76
2021/01/02 11:20:22;;;;;;;5.03;2.93;;;;;;;4.66;100.00;101746.93;1852235;77;26282;-76
2021/01/02 11:22:52;;;;;;;3.70;3.10;;;;;;;4.53;100.00;101739.09;1852365;77;26676;-76
2021/01/02 11:25:21;;;;;;;8.03;3.70;;;;;;;4.54;100.00;101734.41;1852217;77;26679;-76
2021/01/02 11:27:51;;;;;;;4.97;3.50;;;;;;;4.50;100.00;101728.52;1852150;77;26216;-79
2021/01/02 11:30:23;;;;;;;4.83;3.50;;;;;;;4.46;100.00;101728.66;1852184;77;26213;-76
2021/01/02 11:32:53;;;;;;;4.70;3.40;;;;;;;4.50;100.00;101720.27;1852173;77;26263;-75
2021/01/02 11:35:22;;;;;;;4.30;3.07;;;;;;;4.62;100.00;101716.23;1852197;77;26302;-77
2021/01/02 11:37:53;;;;;;;5.07;3.10;;;;;;;4.80;100.00;101714.92;1852336;77;26216;-77
2021/01/02 11:40:23;;;;;;;4.20;3.27;;;;;;;4.75;100.00;101706.48;1852200;77;26313;-76
2021/01/02 11:42:55;;;;;;;3.77;3.07;;;;;;;4.76;100.00;101701.83;1852164;77;26227;-75
2021/01/02 11:45:25;;;;;;;3.77;2.93;;;;;;;4.86;100.00;101703.02;1852195;77;26267;-74
2021/01/02 11:47:55;;;;;;;5.17;2.93;;;;;;;4.83;100.00;101695.75;1852075;77;26243;-76
2021/01/02 11:50:24;;;;;;;4.90;3.40;;;;;;;4.83;100.00;101693.84;1852120;77;26261;-75